Maersk Darmstadt — 9HYN7 — position and weather

sailwx.info

Track history (hours):
 
Tides and Currents Weather Stations Pressure Air Temp Water Temp Dewpoint Dewpoint Depression Visibility Wind Speed Wind Dir Waves Ship Positions

Maersk Darmstadt

Last reported at 2017-Nov-19 23:54 UTC. Time now 2017-Nov-22 13:13 UTC.
Position N 53°34' E 005°24'.

Type: Ship (hazmat cat D). MMSI: 215724000.

Date/timePositionNaut miles runAvg speedWind from/ knotsBaromVisibWave heightAir tempDewpointWater temp
2017-Nov-19 23:54N 53°34' E 005°24'3 8.4
2017-Nov-19 23:30N 53°33' E 005°19'4 8.6
2017-Nov-19 23:01N 53°32' E 005°12'4 8.5
2017-Nov-19 22:31N 53°31' E 005°05'4 8.4
2017-Nov-19 22:00N 53°29' E 004°59'4 8.6
2017-Nov-19 21:30N 53°27' E 004°53'4 8.5
2017-Nov-19 21:01N 53°25' E 004°46'610.3
2017-Nov-19 20:28N 53°21' E 004°40'510.7
2017-Nov-19 20:01N 53°16' E 004°36'610.7
2017-Nov-19 19:29N 53°11' E 004°32'910.9
2017-Nov-19 18:39N 53°03' E 004°25'211.3
2017-Nov-19 18:30N 53°02' E 004°24'611.4
2017-Nov-19 18:00N 52°57' E 004°19'611.7
2017-Nov-19 17:30N 52°52' E 004°15'611.8
2017-Nov-19 17:00N 52°47' E 004°09'611.9
2017-Nov-19 16:30N 52°43' E 004°02'712.0
2017-Nov-19 15:55N 52°37' E 003°54'512.0
2017-Nov-19 15:30N 52°33' E 003°49'714.1
2017-Nov-19 15:00N 52°28' E 003°42'2812.1
2017-Nov-19 12:43N 52°03' E 003°25'1111.4
2017-Nov-19 11:47N 51°52' E 003°21'2 6.5
2017-Nov-19 11:28N 51°50' E 003°20'4 8.0
2017-Nov-19 11:00N 51°47' E 003°17'5 9.2
2017-Nov-19 10:30N 51°43' E 003°14'713.2
2017-Nov-19 10:00N 51°36' E 003°11'714.6
2017-Nov-19 09:31N 51°30' E 003°04'612.4
2017-Nov-19 09:01N 51°25' E 003°00'917.3
2017-Nov-19 08:31N 51°25' E 003°14'917.4
2017-Nov-19 08:01N 51°25' E 003°28'510.9
2017-Nov-19 07:31N 51°26' E 003°37'611.6
2017-Nov-19 07:00N 51°23' E 003°44'713.7
2017-Nov-19 06:30N 51°22' E 003°55'510.5
2017-Nov-19 06:00N 51°25' E 004°02'511.0
2017-Nov-19 05:30N 51°24' E 004°11'510.0
2017-Nov-19 05:00N 51°20' E 004°16'0 0.3
2017-Nov-19 04:31N 51°20' E 004°17'0 0.0
2017-Nov-19 04:01N 51°20' E 004°17'0 0.0
2017-Nov-19 03:31N 51°20' E 004°17'0 0.0
2017-Nov-19 03:01N 51°20' E 004°17'0 0.0
2017-Nov-19 02:30N 51°20' E 004°17'0 0.0
2017-Nov-19 02:00N 51°20' E 004°17'0 0.0
2017-Nov-19 01:31N 51°20' E 004°17'0 0.0
2017-Nov-19 01:00N 51°20' E 004°17'0 0.0
2017-Nov-19 00:31N 51°20' E 004°17'0 0.0
2017-Nov-19 00:00N 51°20' E 004°17'0 0.0
2017-Nov-18 23:31N 51°20' E 004°17'0 0.0
2017-Nov-18 23:01N 51°20' E 004°17'0 0.0
2017-Nov-18 22:31N 51°20' E 004°17'0 0.0
2017-Nov-18 22:01N 51°20' E 004°17'0 0.0
2017-Nov-18 21:30N 51°20' E 004°17'0 0.0
2017-Nov-18 20:59N 51°20' E 004°17'0 0.0
2017-Nov-18 20:31N 51°20' E 004°17'0 0.0
2017-Nov-18 20:01N 51°20' E 004°17'0 0.0
2017-Nov-18 19:30N 51°20' E 004°17'0 0.0
2017-Nov-18 19:01N 51°20' E 004°17'0 0.0
2017-Nov-18 18:31N 51°20' E 004°17'0 0.0
2017-Nov-18 18:01N 51°20' E 004°17'0 0.0
2017-Nov-18 17:31N 51°20' E 004°17'0 0.0
2017-Nov-18 17:01N 51°20' E 004°17'0 0.0
2017-Nov-18 16:30N 51°20' E 004°17'0 0.0
2017-Nov-18 16:01N 51°20' E 004°17'0 0.0
2017-Nov-18 15:31N 51°20' E 004°17'0 0.0
2017-Nov-18 14:58N 51°20' E 004°17'0 0.0
2017-Nov-18 14:31N 51°20' E 004°17'0 0.0
2017-Nov-18 14:00N 51°20' E 004°17'0 0.0
2017-Nov-18 13:31N 51°20' E 004°17'0 0.0
2017-Nov-18 13:00N 51°20' E 004°17'0 0.2
2017-Nov-18 12:30N 51°20' E 004°17'2 4.8
2017-Nov-18 12:00N 51°22' E 004°14'4 8.6
2017-Nov-18 11:30N 51°22' E 004°07'611.1
2017-Nov-18 11:00N 51°26' E 004°01'612.5
2017-Nov-18 10:31N 51°21' E 003°54'612.5
2017-Nov-18 10:00N 51°22' E 003°44'511.0
2017-Nov-18 09:30N 51°26' E 003°37'4 8.6
2017-Nov-18 09:00N 51°25' E 003°31'5 9.2
2017-Nov-18 08:30N 51°24' E 003°23'510.8
2017-Nov-18 08:00N 51°25' E 003°15'612.3
2017-Nov-18 07:31N 51°24' E 003°05'714.5
2017-Nov-18 07:01N 51°25' E 002°53'612.5
2017-Nov-18 06:30N 51°23' E 002°43'5 9.8
2017-Nov-18 06:00N 51°22' E 002°36'1 1.7
2017-Nov-18 05:30N 51°22' E 002°34'3 5.8
2017-Nov-18 04:59N 51°22' E 002°30'3 6.3
2017-Nov-18 04:31N 51°21' E 002°25'4 8.6
2017-Nov-18 04:01N 51°19' E 002°19'510.6
2017-Nov-18 03:30N 51°16' E 002°12'713.1
2017-Nov-18 03:00N 51°12' E 002°03'816.8
2017-Nov-18 02:30N 51°08' E 001°51'816.5
2017-Nov-18 02:00N 51°03' E 001°41'1019.2
2017-Nov-18 01:30N 50°56' E 001°31'1018.9
2017-Nov-18 01:00N 50°47' E 001°25'4417.4
2017-Nov-17 22:28N 50°23' E 000°26'818.4
2017-Nov-17 22:00N 50°22' E 000°13'1018.9
2017-Nov-17 21:30N 50°20' W 000°01'1019.3
2017-Nov-17 21:00N 50°19' W 000°16'1020.1
2017-Nov-17 20:29N 50°18' W 000°33'1516.6
2017-Nov-17 19:34N 50°29' W 000°49'118.4
2017-Nov-17 19:30N 50°30' W 000°49'918.1
2017-Nov-17 19:00N 50°39' W 000°55'5 9.9
2017-Nov-17 18:30N 50°43' W 000°59'816.1
2017-Nov-17 18:00N 50°46' W 001°11'5 9.8
2017-Nov-17 17:31N 50°48' W 001°17'4 8.5
2017-Nov-17 17:01N 50°52' W 001°22'4 7.6
2017-Nov-17 16:30N 50°54' W 001°26'1 1.4
2017-Nov-17 15:57N 50°54' W 001°27'0 0.0
2017-Nov-17 08:59N 50°55' W 001°28'0 0.0
2017-Nov-17 01:30N 50°54' W 001°28'1 2.3
2017-Nov-17 01:00N 50°54' W 001°26'3 5.8
2017-Nov-17 00:30N 50°52' W 001°23'4 8.0
2017-Nov-17 00:00N 50°49' W 001°18'3 6.9
2017-Nov-16 23:30N 50°46' W 001°16'714.1
2017-Nov-16 23:01N 50°44' W 001°05'714.8
2017-Nov-16 22:30N 50°39' W 000°57'4 7.8
2017-Nov-16 22:00N 50°35' W 000°57'4 8.5
2017-Nov-16 21:30N 50°31' W 000°58'1 2.8
2017-Nov-16 21:00N 50°30' W 000°59'3 6.8
2017-Nov-16 20:30N 50°29' W 001°04'4 7.4
2017-Nov-16 20:00N 50°28' W 001°10'4 8.6
2017-Nov-16 19:30N 50°27' W 001°16'5 9.4
2017-Nov-16 19:00N 50°25' W 001°23'7 9.4
2017-Nov-16 18:19N 50°24' W 001°33'3 9.3
2017-Nov-16 17:58N 50°23' W 001°38'4 9.2
2017-Nov-16 17:30N 50°21' W 001°45'36 8.4
2017-Nov-16 13:15N 50°11' W 002°38'3 7.2
2017-Nov-16 12:51N 50°11' W 002°42'3 7.1
2017-Nov-16 12:30N 50°10' W 002°46'4 7.2
2017-Nov-16 12:00N 50°09' W 002°52'4 7.4
2017-Nov-16 11:24N 50°08' W 002°58'3 7.6
2017-Nov-16 11:01N 50°07' W 003°02'4 7.8
2017-Nov-16 10:30N 50°06' W 003°08'4 7.7
2017-Nov-16 10:01N 50°04' W 003°14'510.0
2017-Nov-16 09:30N 50°03' W 003°21'510.6
2017-Nov-16 09:00N 50°01' W 003°29'610.8
2017-Nov-16 08:29N 49°59' W 003°37'511.2
2017-Nov-16 08:00N 49°58' W 003°46'713.8
2017-Nov-16 07:30N 49°56' W 003°56'714.0
2017-Nov-16 07:00N 49°54' W 004°07'714.2
2017-Nov-16 06:30N 49°52' W 004°17'714.2
2017-Nov-16 06:00N 49°50' W 004°28'814.5
2017-Nov-16 05:26N 49°48' W 004°40'714.7
2017-Nov-16 04:56N 49°46' W 004°51'714.7
2017-Nov-16 04:26N 49°44' W 005°02'915.1
2017-Nov-16 03:51N 49°43' W 005°15'815.1
2017-Nov-16 03:20N 49°42' W 005°27'514.9
2017-Nov-16 03:00N 49°41' W 005°35'815.4
2017-Nov-16 02:28N 49°40' W 005°48'915.9
2017-Nov-16 01:54N 49°39' W 006°01'715.6
2017-Nov-16 01:28N 49°38' W 006°11'915.6
2017-Nov-16 00:55N 49°38' W 006°25'715.3
2017-Nov-16 00:30N 49°38' W 006°35'815.2
2017-Nov-15 23:57N 49°38' W 006°47'715.2
2017-Nov-15 23:30N 49°39' W 006°58'1115.0
2017-Nov-15 22:48N 49°40' W 007°14'74518.3
2017-Nov-14 06:00N 49°06' W 026°18'11719.5 210 / 191020.6 5.4 15.012.9
2017-Nov-14 00:00N 48°42' W 029°12'11419.0 200 / 171021.0 1.1 14.012.2
2017-Nov-13 18:00N 48°18' W 032°00'31717.6 020 / 201020.5 5.4 13.011.1
2017-Nov-13 00:00N 46°48' W 039°30'10918.2 310 / 121024.0 1.1 10.0 7.9
2017-Nov-12 18:00N 46°12' W 042°00'32117.8 350 / 161023.1 5.4 8.0 6.1
2017-Nov-12 00:00N 44°00' W 048°54'9616.1 290 / 181021.0 1.1 7.0 2.1
2017-Nov-11 18:00N 43°18' W 050°54'9616.1 320 / 181016.4 2.2 10.0 6.2
2017-Nov-11 12:00N 42°30' W 052°48'9716.2 290 / 111013.0 15.015.0
2017-Nov-11 06:00N 41°42' W 054°42'7011.7 330 / 61010.6 2.2 20.019.5
2017-Nov-11 00:00N 40°48' W 053°42'24540.9 210 / 341011.0 1.1 23.016.5
2017-Nov-10 18:00N 39°48' W 058°54'21417.9 220 / 401005.3 2.2 25.020.5
2017-Nov-10 06:00N 37°48' W 062°42'   110 / 241011.7 5.4 22.020.5
Track history (hours):
 
Tides and Currents Weather Stations Pressure Air Temp Water Temp Dewpoint Dewpoint Depression Visibility Wind Speed Wind Dir Waves Ship Positions

Maersk Darmstadt

Last reported at 2017-Nov-19 23:54 UTC. Time now 2017-Nov-22 13:13 UTC.
Position N 53°34' E 005°24'.

Type: Ship (hazmat cat D). MMSI: 215724000.

Date/timePositionNaut miles runAvg speedWind from/ knotsBaromVisibWave heightAir tempDewpointWater temp
2017-Nov-19 23:54N 53°34' E 005°24'3 8.4
2017-Nov-19 23:30N 53°33' E 005°19'4 8.6
2017-Nov-19 23:01N 53°32' E 005°12'4 8.5
2017-Nov-19 22:31N 53°31' E 005°05'4 8.4
2017-Nov-19 22:00N 53°29' E 004°59'4 8.6
2017-Nov-19 21:30N 53°27' E 004°53'4 8.5
2017-Nov-19 21:01N 53°25' E 004°46'610.3
2017-Nov-19 20:28N 53°21' E 004°40'510.7
2017-Nov-19 20:01N 53°16' E 004°36'610.7
2017-Nov-19 19:29N 53°11' E 004°32'910.9
2017-Nov-19 18:39N 53°03' E 004°25'211.3
2017-Nov-19 18:30N 53°02' E 004°24'611.4
2017-Nov-19 18:00N 52°57' E 004°19'611.7
2017-Nov-19 17:30N 52°52' E 004°15'611.8
2017-Nov-19 17:00N 52°47' E 004°09'611.9
2017-Nov-19 16:30N 52°43' E 004°02'712.0
2017-Nov-19 15:55N 52°37' E 003°54'512.0
2017-Nov-19 15:30N 52°33' E 003°49'714.1
2017-Nov-19 15:00N 52°28' E 003°42'2812.1
2017-Nov-19 12:43N 52°03' E 003°25'1111.4
2017-Nov-19 11:47N 51°52' E 003°21'2 6.5
2017-Nov-19 11:28N 51°50' E 003°20'4 8.0
2017-Nov-19 11:00N 51°47' E 003°17'5 9.2
2017-Nov-19 10:30N 51°43' E 003°14'713.2
2017-Nov-19 10:00N 51°36' E 003°11'714.6
2017-Nov-19 09:31N 51°30' E 003°04'612.4
2017-Nov-19 09:01N 51°25' E 003°00'917.3
2017-Nov-19 08:31N 51°25' E 003°14'917.4
2017-Nov-19 08:01N 51°25' E 003°28'510.9
2017-Nov-19 07:31N 51°26' E 003°37'611.6
2017-Nov-19 07:00N 51°23' E 003°44'713.7
2017-Nov-19 06:30N 51°22' E 003°55'510.5
2017-Nov-19 06:00N 51°25' E 004°02'511.0
2017-Nov-19 05:30N 51°24' E 004°11'510.0
2017-Nov-19 05:00N 51°20' E 004°16'0 0.3
2017-Nov-19 04:31N 51°20' E 004°17'0 0.0
2017-Nov-19 04:01N 51°20' E 004°17'0 0.0
2017-Nov-19 03:31N 51°20' E 004°17'0 0.0
2017-Nov-19 03:01N 51°20' E 004°17'0 0.0
2017-Nov-19 02:30N 51°20' E 004°17'0 0.0
2017-Nov-19 02:00N 51°20' E 004°17'0 0.0
2017-Nov-19 01:31N 51°20' E 004°17'0 0.0
2017-Nov-19 01:00N 51°20' E 004°17'0 0.0
2017-Nov-19 00:31N 51°20' E 004°17'0 0.0
2017-Nov-19 00:00N 51°20' E 004°17'0 0.0
2017-Nov-18 23:31N 51°20' E 004°17'0 0.0
2017-Nov-18 23:01N 51°20' E 004°17'0 0.0
2017-Nov-18 22:31N 51°20' E 004°17'0 0.0
2017-Nov-18 22:01N 51°20' E 004°17'0 0.0
2017-Nov-18 21:30N 51°20' E 004°17'0 0.0
2017-Nov-18 20:59N 51°20' E 004°17'0 0.0
2017-Nov-18 20:31N 51°20' E 004°17'0 0.0
2017-Nov-18 20:01N 51°20' E 004°17'0 0.0
2017-Nov-18 19:30N 51°20' E 004°17'0 0.0
2017-Nov-18 19:01N 51°20' E 004°17'0 0.0
2017-Nov-18 18:31N 51°20' E 004°17'0 0.0
2017-Nov-18 18:01N 51°20' E 004°17'0 0.0
2017-Nov-18 17:31N 51°20' E 004°17'0 0.0
2017-Nov-18 17:01N 51°20' E 004°17'0 0.0
2017-Nov-18 16:30N 51°20' E 004°17'0 0.0
2017-Nov-18 16:01N 51°20' E 004°17'0 0.0
2017-Nov-18 15:31N 51°20' E 004°17'0 0.0
2017-Nov-18 14:58N 51°20' E 004°17'0 0.0
2017-Nov-18 14:31N 51°20' E 004°17'0 0.0
2017-Nov-18 14:00N 51°20' E 004°17'0 0.0
2017-Nov-18 13:31N 51°20' E 004°17'0 0.0
2017-Nov-18 13:00N 51°20' E 004°17'0 0.2
2017-Nov-18 12:30N 51°20' E 004°17'2 4.8
2017-Nov-18 12:00N 51°22' E 004°14'4 8.6
2017-Nov-18 11:30N 51°22' E 004°07'611.1
2017-Nov-18 11:00N 51°26' E 004°01'612.5
2017-Nov-18 10:31N 51°21' E 003°54'612.5
2017-Nov-18 10:00N 51°22' E 003°44'511.0
2017-Nov-18 09:30N 51°26' E 003°37'4 8.6
2017-Nov-18 09:00N 51°25' E 003°31'5 9.2
2017-Nov-18 08:30N 51°24' E 003°23'510.8
2017-Nov-18 08:00N 51°25' E 003°15'612.3
2017-Nov-18 07:31N 51°24' E 003°05'714.5
2017-Nov-18 07:01N 51°25' E 002°53'612.5
2017-Nov-18 06:30N 51°23' E 002°43'5 9.8
2017-Nov-18 06:00N 51°22' E 002°36'1 1.7
2017-Nov-18 05:30N 51°22' E 002°34'3 5.8
2017-Nov-18 04:59N 51°22' E 002°30'3 6.3
2017-Nov-18 04:31N 51°21' E 002°25'4 8.6
2017-Nov-18 04:01N 51°19' E 002°19'510.6
2017-Nov-18 03:30N 51°16' E 002°12'713.1
2017-Nov-18 03:00N 51°12' E 002°03'816.8
2017-Nov-18 02:30N 51°08' E 001°51'816.5
2017-Nov-18 02:00N 51°03' E 001°41'1019.2
2017-Nov-18 01:30N 50°56' E 001°31'1018.9
2017-Nov-18 01:00N 50°47' E 001°25'4417.4
2017-Nov-17 22:28N 50°23' E 000°26'818.4
2017-Nov-17 22:00N 50°22' E 000°13'1018.9
2017-Nov-17 21:30N 50°20' W 000°01'1019.3
2017-Nov-17 21:00N 50°19' W 000°16'1020.1
2017-Nov-17 20:29N 50°18' W 000°33'1516.6
2017-Nov-17 19:34N 50°29' W 000°49'118.4
2017-Nov-17 19:30N 50°30' W 000°49'918.1
2017-Nov-17 19:00N 50°39' W 000°55'5 9.9
2017-Nov-17 18:30N 50°43' W 000°59'816.1
2017-Nov-17 18:00N 50°46' W 001°11'5 9.8
2017-Nov-17 17:31N 50°48' W 001°17'4 8.5
2017-Nov-17 17:01N 50°52' W 001°22'4 7.6
2017-Nov-17 16:30N 50°54' W 001°26'1 1.4
2017-Nov-17 15:57N 50°54' W 001°27'0 0.0
2017-Nov-17 08:59N 50°55' W 001°28'0 0.0
2017-Nov-17 01:30N 50°54' W 001°28'1 2.3
2017-Nov-17 01:00N 50°54' W 001°26'3 5.8
2017-Nov-17 00:30N 50°52' W 001°23'4 8.0
2017-Nov-17 00:00N 50°49' W 001°18'3 6.9
2017-Nov-16 23:30N 50°46' W 001°16'714.1
2017-Nov-16 23:01N 50°44' W 001°05'714.8
2017-Nov-16 22:30N 50°39' W 000°57'4 7.8
2017-Nov-16 22:00N 50°35' W 000°57'4 8.5
2017-Nov-16 21:30N 50°31' W 000°58'1 2.8
2017-Nov-16 21:00N 50°30' W 000°59'3 6.8
2017-Nov-16 20:30N 50°29' W 001°04'4 7.4
2017-Nov-16 20:00N 50°28' W 001°10'4 8.6
2017-Nov-16 19:30N 50°27' W 001°16'5 9.4
2017-Nov-16 19:00N 50°25' W 001°23'7 9.4
2017-Nov-16 18:19N 50°24' W 001°33'3 9.3
2017-Nov-16 17:58N 50°23' W 001°38'4 9.2
2017-Nov-16 17:30N 50°21' W 001°45'36 8.4
2017-Nov-16 13:15N 50°11' W 002°38'3 7.2
2017-Nov-16 12:51N 50°11' W 002°42'3 7.1
2017-Nov-16 12:30N 50°10' W 002°46'4 7.2
2017-Nov-16 12:00N 50°09' W 002°52'4 7.4
2017-Nov-16 11:24N 50°08' W 002°58'3 7.6
2017-Nov-16 11:01N 50°07' W 003°02'4 7.8
2017-Nov-16 10:30N 50°06' W 003°08'4 7.7
2017-Nov-16 10:01N 50°04' W 003°14'510.0
2017-Nov-16 09:30N 50°03' W 003°21'510.6
2017-Nov-16 09:00N 50°01' W 003°29'610.8
2017-Nov-16 08:29N 49°59' W 003°37'511.2
2017-Nov-16 08:00N 49°58' W 003°46'713.8
2017-Nov-16 07:30N 49°56' W 003°56'714.0
2017-Nov-16 07:00N 49°54' W 004°07'714.2
2017-Nov-16 06:30N 49°52' W 004°17'714.2
2017-Nov-16 06:00N 49°50' W 004°28'814.5
2017-Nov-16 05:26N 49°48' W 004°40'714.7
2017-Nov-16 04:56N 49°46' W 004°51'714.7
2017-Nov-16 04:26N 49°44' W 005°02'915.1
2017-Nov-16 03:51N 49°43' W 005°15'815.1
2017-Nov-16 03:20N 49°42' W 005°27'514.9
2017-Nov-16 03:00N 49°41' W 005°35'815.4
2017-Nov-16 02:28N 49°40' W 005°48'915.9
2017-Nov-16 01:54N 49°39' W 006°01'715.6
2017-Nov-16 01:28N 49°38' W 006°11'915.6
2017-Nov-16 00:55N 49°38' W 006°25'715.3
2017-Nov-16 00:30N 49°38' W 006°35'815.2
2017-Nov-15 23:57N 49°38' W 006°47'715.2
2017-Nov-15 23:30N 49°39' W 006°58'1115.0
2017-Nov-15 22:48N 49°40' W 007°14'74518.3
2017-Nov-14 06:00N 49°06' W 026°18'11719.5 210 / 191020.6 5.4 15.012.9
2017-Nov-14 00:00N 48°42' W 029°12'11419.0 200 / 171021.0 1.1 14.012.2
2017-Nov-13 18:00N 48°18' W 032°00'31717.6 020 / 201020.5 5.4 13.011.1
2017-Nov-13 00:00N 46°48' W 039°30'10918.2 310 / 121024.0 1.1 10.0 7.9
2017-Nov-12 18:00N 46°12' W 042°00'32117.8 350 / 161023.1 5.4 8.0 6.1
2017-Nov-12 00:00N 44°00' W 048°54'9616.1 290 / 181021.0 1.1 7.0 2.1
2017-Nov-11 18:00N 43°18' W 050°54'9616.1 320 / 181016.4 2.2 10.0 6.2
2017-Nov-11 12:00N 42°30' W 052°48'9716.2 290 / 111013.0 15.015.0
2017-Nov-11 06:00N 41°42' W 054°42'7011.7 330 / 61010.6 2.2 20.019.5
2017-Nov-11 00:00N 40°48' W 053°42'24540.9 210 / 341011.0 1.1 23.016.5
2017-Nov-10 18:00N 39°48' W 058°54'21417.9 220 / 401005.3 2.2 25.020.5
2017-Nov-10 06:00N 37°48' W 062°42'   110 / 241011.7 5.4 22.020.5

Dump ship's entire track history